sensor_id;sensor_type;location;lat;lon;timestamp;P1;durP1;ratioP1;P2;durP2;ratioP2
25327;SDS011;13279;51.300;12.394;2024-02-21T00:00:26;12.73;;;3.33;;
25327;SDS011;13279;51.300;12.394;2024-02-21T00:02:53;15.00;;;2.90;;
25327;SDS011;13279;51.300;12.394;2024-02-21T00:05:21;17.90;;;3.00;;
25327;SDS011;13279;51.300;12.394;2024-02-21T00:07:48;11.87;;;3.37;;
25327;SDS011;13279;51.300;12.394;2024-02-21T00:10:16;15.63;;;3.60;;
25327;SDS011;13279;51.300;12.394;2024-02-21T00:12:43;13.60;;;3.20;;
25327;SDS011;13279;51.300;12.394;2024-02-21T00:15:12;10.57;;;3.33;;
25327;SDS011;13279;51.300;12.394;2024-02-21T00:17:39;13.80;;;3.40;;
25327;SDS011;13279;51.300;12.394;2024-02-21T00:20:07;9.63;;;2.90;;
25327;SDS011;13279;51.300;12.394;2024-02-21T00:22:35;10.30;;;3.50;;
25327;SDS011;13279;51.300;12.394;2024-02-21T00:25:03;16.50;;;3.37;;
25327;SDS011;13279;51.300;12.394;2024-02-21T00:27:31;16.97;;;3.70;;
25327;SDS011;13279;51.300;12.394;2024-02-21T00:29:59;16.17;;;3.33;;
25327;SDS011;13279;51.300;12.394;2024-02-21T00:32:27;12.90;;;3.20;;
25327;SDS011;13279;51.300;12.394;2024-02-21T00:34:55;16.83;;;2.87;;
25327;SDS011;13279;51.300;12.394;2024-02-21T00:37:22;9.60;;;3.33;;
25327;SDS011;13279;51.300;12.394;2024-02-21T00:39:49;9.30;;;3.10;;
25327;SDS011;13279;51.300;12.394;2024-02-21T00:42:17;11.87;;;2.90;;
25327;SDS011;13279;51.300;12.394;2024-02-21T00:44:45;13.97;;;3.53;;
25327;SDS011;13279;51.300;12.394;2024-02-21T00:47:12;12.27;;;3.43;;
25327;SDS011;13279;51.300;12.394;2024-02-21T00:49:41;16.50;;;3.60;;
25327;SDS011;13279;51.300;12.394;2024-02-21T00:52:08;22.50;;;3.70;;
25327;SDS011;13279;51.300;12.394;2024-02-21T00:54:35;13.70;;;3.17;;
25327;SDS011;13279;51.300;12.394;2024-02-21T00:57:03;12.97;;;3.37;;
25327;SDS011;13279;51.300;12.394;2024-02-21T00:59:30;10.07;;;3.50;;
25327;SDS011;13279;51.300;12.394;2024-02-21T01:01:58;14.00;;;3.27;;
25327;SDS011;13279;51.300;12.394;2024-02-21T01:04:25;10.30;;;3.23;;
25327;SDS011;13279;51.300;12.394;2024-02-21T01:06:54;14.27;;;3.03;;
25327;SDS011;13279;51.300;12.394;2024-02-21T01:09:22;12.00;;;2.90;;
25327;SDS011;13279;51.300;12.394;2024-02-21T01:11:49;15.47;;;3.33;;
25327;SDS011;13279;51.300;12.394;2024-02-21T01:14:17;13.03;;;2.90;;
25327;SDS011;13279;51.300;12.394;2024-02-21T01:16:44;14.83;;;3.40;;
25327;SDS011;13279;51.300;12.394;2024-02-21T01:19:11;9.93;;;3.03;;
25327;SDS011;13279;51.300;12.394;2024-02-21T01:21:38;18.07;;;3.63;;
25327;SDS011;13279;51.300;12.394;2024-02-21T01:24:07;10.77;;;3.37;;
25327;SDS011;13279;51.300;12.394;2024-02-21T01:26:34;19.87;;;4.20;;
25327;SDS011;13279;51.300;12.394;2024-02-21T01:29:02;13.03;;;4.63;;
25327;SDS011;13279;51.300;12.394;2024-02-21T01:31:29;21.87;;;3.63;;
25327;SDS011;13279;51.300;12.394;2024-02-21T01:33:57;15.47;;;4.10;;
25327;SDS011;13279;51.300;12.394;2024-02-21T01:36:24;16.43;;;2.90;;
25327;SDS011;13279;51.300;12.394;2024-02-21T01:38:52;12.63;;;3.37;;
25327;SDS011;13279;51.300;12.394;2024-02-21T01:41:20;15.57;;;3.60;;
25327;SDS011;13279;51.300;12.394;2024-02-21T01:43:48;13.67;;;3.87;;
25327;SDS011;13279;51.300;12.394;2024-02-21T01:46:15;15.90;;;3.33;;
25327;SDS011;13279;51.300;12.394;2024-02-21T01:48:43;13.03;;;3.10;;
25327;SDS011;13279;51.300;12.394;2024-02-21T01:51:11;13.37;;;3.27;;
25327;SDS011;13279;51.300;12.394;2024-02-21T01:53:43;17.03;;;3.30;;
25327;SDS011;13279;51.300;12.394;2024-02-21T01:56:11;19.53;;;3.33;;
25327;SDS011;13279;51.300;12.394;2024-02-21T01:58:41;13.67;;;4.10;;
25327;SDS011;13279;51.300;12.394;2024-02-21T02:01:10;13.17;;;2.97;;
25327;SDS011;13279;51.300;12.394;2024-02-21T02:03:37;8.43;;;3.20;;
25327;SDS011;13279;51.300;12.394;2024-02-21T02:06:06;12.40;;;3.77;;
25327;SDS011;13279;51.300;12.394;2024-02-21T02:08:33;16.90;;;3.40;;
25327;SDS011;13279;51.300;12.394;2024-02-21T02:11:01;12.37;;;3.47;;
25327;SDS011;13279;51.300;12.394;2024-02-21T02:13:29;21.87;;;3.97;;
25327;SDS011;13279;51.300;12.394;2024-02-21T02:15:58;12.13;;;4.03;;
25327;SDS011;13279;51.300;12.394;2024-02-21T02:18:25;14.43;;;3.20;;
25327;SDS011;13279;51.300;12.394;2024-02-21T02:20:53;14.10;;;3.83;;
25327;SDS011;13279;51.300;12.394;2024-02-21T02:23:23;11.80;;;3.67;;
25327;SDS011;13279;51.300;12.394;2024-02-21T02:25:51;14.43;;;4.07;;
25327;SDS011;13279;51.300;12.394;2024-02-21T02:28:18;20.10;;;4.07;;
25327;SDS011;13279;51.300;12.394;2024-02-21T02:30:46;26.03;;;3.90;;
25327;SDS011;13279;51.300;12.394;2024-02-21T02:33:14;13.40;;;3.80;;
25327;SDS011;13279;51.300;12.394;2024-02-21T02:35:43;18.00;;;3.70;;
25327;SDS011;13279;51.300;12.394;2024-02-21T02:38:10;6.13;;;3.30;;
25327;SDS011;13279;51.300;12.394;2024-02-21T02:40:40;20.83;;;4.77;;
25327;SDS011;13279;51.300;12.394;2024-02-21T02:43:08;10.90;;;2.77;;
25327;SDS011;13279;51.300;12.394;2024-02-21T02:45:35;10.03;;;3.73;;
25327;SDS011;13279;51.300;12.394;2024-02-21T02:48:03;8.37;;;3.33;;
25327;SDS011;13279;51.300;12.394;2024-02-21T02:50:31;9.03;;;3.13;;
25327;SDS011;13279;51.300;12.394;2024-02-21T02:52:58;15.07;;;4.20;;
25327;SDS011;13279;51.300;12.394;2024-02-21T02:55:26;18.10;;;4.93;;
25327;SDS011;13279;51.300;12.394;2024-02-21T02:57:54;14.60;;;3.33;;
25327;SDS011;13279;51.300;12.394;2024-02-21T03:00:22;11.70;;;3.80;;
25327;SDS011;13279;51.300;12.394;2024-02-21T03:02:50;10.13;;;3.13;;
25327;SDS011;13279;51.300;12.394;2024-02-21T03:05:18;13.73;;;4.60;;
25327;SDS011;13279;51.300;12.394;2024-02-21T03:07:46;14.47;;;3.20;;
25327;SDS011;13279;51.300;12.394;2024-02-21T03:10:15;17.23;;;3.83;;
25327;SDS011;13279;51.300;12.394;2024-02-21T03:12:42;17.60;;;3.33;;
25327;SDS011;13279;51.300;12.394;2024-02-21T03:15:11;13.23;;;2.87;;
25327;SDS011;13279;51.300;12.394;2024-02-21T03:17:39;8.50;;;3.10;;
25327;SDS011;13279;51.300;12.394;2024-02-21T03:20:06;12.50;;;3.90;;
25327;SDS011;13279;51.300;12.394;2024-02-21T03:22:35;13.80;;;3.50;;
25327;SDS011;13279;51.300;12.394;2024-02-21T03:25:03;16.23;;;3.80;;
25327;SDS011;13279;51.300;12.394;2024-02-21T03:27:32;13.33;;;3.33;;
25327;SDS011;13279;51.300;12.394;2024-02-21T03:29:59;17.13;;;3.93;;
25327;SDS011;13279;51.300;12.394;2024-02-21T03:32:28;13.33;;;4.03;;
25327;SDS011;13279;51.300;12.394;2024-02-21T03:34:55;14.57;;;3.00;;
25327;SDS011;13279;51.300;12.394;2024-02-21T03:37:23;13.07;;;3.53;;
25327;SDS011;13279;51.300;12.394;2024-02-21T03:39:50;12.23;;;2.93;;
25327;SDS011;13279;51.300;12.394;2024-02-21T03:42:17;8.00;;;3.03;;
25327;SDS011;13279;51.300;12.394;2024-02-21T03:44:45;12.57;;;3.47;;
25327;SDS011;13279;51.300;12.394;2024-02-21T03:47:12;17.47;;;3.10;;
25327;SDS011;13279;51.300;12.394;2024-02-21T03:49:41;14.90;;;4.40;;
25327;SDS011;13279;51.300;12.394;2024-02-21T03:52:08;8.70;;;3.13;;
25327;SDS011;13279;51.300;12.394;2024-02-21T03:54:35;8.80;;;3.10;;
25327;SDS011;13279;51.300;12.394;2024-02-21T03:57:04;18.27;;;3.80;;
25327;SDS011;13279;51.300;12.394;2024-02-21T03:59:32;9.90;;;2.97;;
25327;SDS011;13279;51.300;12.394;2024-02-21T04:01:59;15.40;;;3.17;;
25327;SDS011;13279;51.300;12.394;2024-02-21T04:04:29;11.27;;;3.57;;
25327;SDS011;13279;51.300;12.394;2024-02-21T04:06:58;10.83;;;2.80;;
25327;SDS011;13279;51.300;12.394;2024-02-21T04:09:25;14.90;;;3.73;;
25327;SDS011;13279;51.300;12.394;2024-02-21T04:11:53;10.77;;;3.23;;
25327;SDS011;13279;51.300;12.394;2024-02-21T04:14:20;19.53;;;3.33;;
25327;SDS011;13279;51.300;12.394;2024-02-21T04:16:48;11.27;;;3.13;;
25327;SDS011;13279;51.300;12.394;2024-02-21T04:19:16;13.47;;;3.40;;
25327;SDS011;13279;51.300;12.394;2024-02-21T04:21:43;11.07;;;3.17;;
25327;SDS011;13279;51.300;12.394;2024-02-21T04:24:12;16.13;;;3.60;;
25327;SDS011;13279;51.300;12.394;2024-02-21T04:26:39;14.53;;;4.13;;
25327;SDS011;13279;51.300;12.394;2024-02-21T04:29:08;20.13;;;3.27;;
25327;SDS011;13279;51.300;12.394;2024-02-21T04:31:35;13.43;;;3.63;;
25327;SDS011;13279;51.300;12.394;2024-02-21T04:34:03;10.80;;;3.30;;
25327;SDS011;13279;51.300;12.394;2024-02-21T04:36:32;10.97;;;3.43;;
25327;SDS011;13279;51.300;12.394;2024-02-21T04:39:00;22.87;;;4.00;;
25327;SDS011;13279;51.300;12.394;2024-02-21T04:41:28;11.90;;;3.07;;
25327;SDS011;13279;51.300;12.394;2024-02-21T04:43:56;16.77;;;4.33;;
25327;SDS011;13279;51.300;12.394;2024-02-21T04:46:24;14.17;;;3.60;;
25327;SDS011;13279;51.300;12.394;2024-02-21T04:48:51;9.60;;;3.50;;
25327;SDS011;13279;51.300;12.394;2024-02-21T04:51:19;10.73;;;3.53;;
25327;SDS011;13279;51.300;12.394;2024-02-21T04:53:46;10.27;;;4.47;;
25327;SDS011;13279;51.300;12.394;2024-02-21T04:56:14;13.80;;;3.40;;
25327;SDS011;13279;51.300;12.394;2024-02-21T04:58:43;12.10;;;3.73;;
25327;SDS011;13279;51.300;12.394;2024-02-21T05:01:10;15.87;;;4.53;;
25327;SDS011;13279;51.300;12.394;2024-02-21T05:03:38;13.60;;;3.53;;
25327;SDS011;13279;51.300;12.394;2024-02-21T05:06:06;12.70;;;3.47;;
25327;SDS011;13279;51.300;12.394;2024-02-21T05:08:34;13.47;;;3.93;;
25327;SDS011;13279;51.300;12.394;2024-02-21T05:11:01;10.10;;;3.37;;
25327;SDS011;13279;51.300;12.394;2024-02-21T05:13:29;10.67;;;3.80;;
25327;SDS011;13279;51.300;12.394;2024-02-21T05:15:58;16.67;;;4.20;;
25327;SDS011;13279;51.300;12.394;2024-02-21T05:18:27;15.53;;;3.47;;
25327;SDS011;13279;51.300;12.394;2024-02-21T05:20:55;18.20;;;4.17;;
25327;SDS011;13279;51.300;12.394;2024-02-21T05:23:22;8.37;;;3.40;;
25327;SDS011;13279;51.300;12.394;2024-02-21T05:25:49;11.13;;;3.60;;
25327;SDS011;13279;51.300;12.394;2024-02-21T05:28:17;22.97;;;4.33;;
25327;SDS011;13279;51.300;12.394;2024-02-21T05:30:45;21.83;;;4.10;;
25327;SDS011;13279;51.300;12.394;2024-02-21T05:33:14;8.20;;;3.47;;
25327;SDS011;13279;51.300;12.394;2024-02-21T05:35:46;12.27;;;3.40;;
25327;SDS011;13279;51.300;12.394;2024-02-21T05:38:14;7.60;;;3.13;;
25327;SDS011;13279;51.300;12.394;2024-02-21T05:40:41;12.93;;;3.13;;
25327;SDS011;13279;51.300;12.394;2024-02-21T05:43:09;15.57;;;3.73;;
25327;SDS011;13279;51.300;12.394;2024-02-21T05:45:36;10.13;;;3.23;;
25327;SDS011;13279;51.300;12.394;2024-02-21T05:48:04;16.83;;;3.80;;
25327;SDS011;13279;51.300;12.394;2024-02-21T05:50:33;16.73;;;3.87;;
25327;SDS011;13279;51.300;12.394;2024-02-21T05:53:01;11.37;;;4.17;;
25327;SDS011;13279;51.300;12.394;2024-02-21T05:55:28;10.43;;;3.40;;
25327;SDS011;13279;51.300;12.394;2024-02-21T05:57:55;11.80;;;3.77;;
25327;SDS011;13279;51.300;12.394;2024-02-21T06:00:23;14.20;;;4.23;;
25327;SDS011;13279;51.300;12.394;2024-02-21T06:02:50;18.50;;;3.57;;
25327;SDS011;13279;51.300;12.394;2024-02-21T06:05:17;14.97;;;4.47;;
25327;SDS011;13279;51.300;12.394;2024-02-21T06:07:46;11.60;;;4.10;;
25327;SDS011;13279;51.300;12.394;2024-02-21T06:10:14;17.87;;;4.70;;
25327;SDS011;13279;51.300;12.394;2024-02-21T06:12:42;14.47;;;4.63;;
25327;SDS011;13279;51.300;12.394;2024-02-21T06:15:09;11.23;;;3.87;;
25327;SDS011;13279;51.300;12.394;2024-02-21T06:17:36;10.93;;;4.07;;
25327;SDS011;13279;51.300;12.394;2024-02-21T06:20:04;21.10;;;4.03;;
25327;SDS011;13279;51.300;12.394;2024-02-21T06:22:32;14.93;;;4.00;;
25327;SDS011;13279;51.300;12.394;2024-02-21T06:25:00;14.07;;;4.50;;
25327;SDS011;13279;51.300;12.394;2024-02-21T06:27:28;15.90;;;3.97;;
25327;SDS011;13279;51.300;12.394;2024-02-21T06:29:55;16.83;;;4.57;;
25327;SDS011;13279;51.300;12.394;2024-02-21T06:32:23;18.13;;;4.30;;
25327;SDS011;13279;51.300;12.394;2024-02-21T06:34:50;15.87;;;3.70;;
25327;SDS011;13279;51.300;12.394;2024-02-21T06:37:18;12.57;;;4.83;;
25327;SDS011;13279;51.300;12.394;2024-02-21T06:39:45;16.20;;;4.20;;
25327;SDS011;13279;51.300;12.394;2024-02-21T06:42:14;14.97;;;3.97;;
25327;SDS011;13279;51.300;12.394;2024-02-21T06:44:41;17.70;;;4.70;;
25327;SDS011;13279;51.300;12.394;2024-02-21T06:47:10;9.17;;;4.50;;
25327;SDS011;13279;51.300;12.394;2024-02-21T06:49:37;14.10;;;4.67;;
25327;SDS011;13279;51.300;12.394;2024-02-21T06:52:04;23.50;;;4.97;;
25327;SDS011;13279;51.300;12.394;2024-02-21T06:54:32;15.77;;;4.93;;
25327;SDS011;13279;51.300;12.394;2024-02-21T06:56:59;10.27;;;4.90;;
25327;SDS011;13279;51.300;12.394;2024-02-21T06:59:30;13.77;;;4.80;;
25327;SDS011;13279;51.300;12.394;2024-02-21T07:01:58;14.70;;;4.27;;
25327;SDS011;13279;51.300;12.394;2024-02-21T07:04:26;9.67;;;4.73;;
25327;SDS011;13279;51.300;12.394;2024-02-21T07:06:54;14.60;;;4.30;;
25327;SDS011;13279;51.300;12.394;2024-02-21T07:09:21;10.73;;;4.17;;
25327;SDS011;13279;51.300;12.394;2024-02-21T07:11:49;11.83;;;4.20;;
25327;SDS011;13279;51.300;12.394;2024-02-21T07:14:17;11.97;;;4.40;;
25327;SDS011;13279;51.300;12.394;2024-02-21T07:16:46;16.10;;;3.77;;
25327;SDS011;13279;51.300;12.394;2024-02-21T07:19:14;11.80;;;3.60;;
25327;SDS011;13279;51.300;12.394;2024-02-21T07:21:42;12.50;;;4.37;;
25327;SDS011;13279;51.300;12.394;2024-02-21T07:24:09;12.10;;;3.90;;
25327;SDS011;13279;51.300;12.394;2024-02-21T07:26:40;11.40;;;4.17;;
25327;SDS011;13279;51.300;12.394;2024-02-21T07:29:08;13.03;;;4.23;;
25327;SDS011;13279;51.300;12.394;2024-02-21T07:31:38;14.77;;;4.47;;
25327;SDS011;13279;51.300;12.394;2024-02-21T07:34:08;13.83;;;4.17;;
25327;SDS011;13279;51.300;12.394;2024-02-21T07:36:36;12.03;;;4.53;;
25327;SDS011;13279;51.300;12.394;2024-02-21T07:39:04;16.00;;;4.23;;
25327;SDS011;13279;51.300;12.394;2024-02-21T07:41:32;13.57;;;4.20;;
25327;SDS011;13279;51.300;12.394;2024-02-21T07:43:59;18.17;;;4.20;;
25327;SDS011;13279;51.300;12.394;2024-02-21T07:46:28;21.07;;;4.07;;
25327;SDS011;13279;51.300;12.394;2024-02-21T07:48:56;11.63;;;4.47;;
25327;SDS011;13279;51.300;12.394;2024-02-21T07:51:28;10.63;;;4.53;;
25327;SDS011;13279;51.300;12.394;2024-02-21T07:53:55;9.97;;;5.20;;
25327;SDS011;13279;51.300;12.394;2024-02-21T07:56:23;9.90;;;4.43;;
25327;SDS011;13279;51.300;12.394;2024-02-21T07:58:54;14.13;;;4.93;;
25327;SDS011;13279;51.300;12.394;2024-02-21T08:01:21;9.83;;;4.63;;
25327;SDS011;13279;51.300;12.394;2024-02-21T08:03:49;10.63;;;4.60;;
25327;SDS011;13279;51.300;12.394;2024-02-21T08:06:16;23.57;;;5.23;;
25327;SDS011;13279;51.300;12.394;2024-02-21T08:08:45;18.73;;;5.30;;
25327;SDS011;13279;51.300;12.394;2024-02-21T08:11:12;13.00;;;4.87;;
25327;SDS011;13279;51.300;12.394;2024-02-21T08:13:39;14.07;;;4.73;;
25327;SDS011;13279;51.300;12.394;2024-02-21T08:16:07;13.93;;;4.83;;
25327;SDS011;13279;51.300;12.394;2024-02-21T08:18:34;11.50;;;5.60;;
25327;SDS011;13279;51.300;12.394;2024-02-21T08:21:04;12.63;;;5.27;;
25327;SDS011;13279;51.300;12.394;2024-02-21T08:23:31;14.27;;;5.03;;
25327;SDS011;13279;51.300;12.394;2024-02-21T08:26:02;12.37;;;5.73;;
25327;SDS011;13279;51.300;12.394;2024-02-21T08:28:30;12.43;;;5.17;;
25327;SDS011;13279;51.300;12.394;2024-02-21T08:30:57;15.27;;;6.43;;
25327;SDS011;13279;51.300;12.394;2024-02-21T08:33:24;14.93;;;5.67;;
25327;SDS011;13279;51.300;12.394;2024-02-21T08:35:52;12.60;;;5.07;;
25327;SDS011;13279;51.300;12.394;2024-02-21T08:38:20;17.23;;;5.93;;
25327;SDS011;13279;51.300;12.394;2024-02-21T08:40:47;17.73;;;5.13;;
25327;SDS011;13279;51.300;12.394;2024-02-21T08:43:17;13.93;;;5.03;;
25327;SDS011;13279;51.300;12.394;2024-02-21T08:45:44;13.47;;;5.27;;
25327;SDS011;13279;51.300;12.394;2024-02-21T08:48:11;15.87;;;5.47;;
25327;SDS011;13279;51.300;12.394;2024-02-21T08:50:39;12.77;;;4.30;;
25327;SDS011;13279;51.300;12.394;2024-02-21T08:53:06;12.43;;;5.03;;
25327;SDS011;13279;51.300;12.394;2024-02-21T08:55:34;11.07;;;5.53;;
25327;SDS011;13279;51.300;12.394;2024-02-21T08:58:02;17.43;;;5.30;;
25327;SDS011;13279;51.300;12.394;2024-02-21T09:00:31;12.30;;;5.53;;
25327;SDS011;13279;51.300;12.394;2024-02-21T09:02:58;14.07;;;4.73;;
25327;SDS011;13279;51.300;12.394;2024-02-21T09:05:26;9.83;;;4.77;;
25327;SDS011;13279;51.300;12.394;2024-02-21T09:07:53;11.47;;;4.90;;
25327;SDS011;13279;51.300;12.394;2024-02-21T09:10:20;18.07;;;5.40;;
25327;SDS011;13279;51.300;12.394;2024-02-21T09:12:48;12.67;;;5.57;;
25327;SDS011;13279;51.300;12.394;2024-02-21T09:15:15;13.30;;;5.20;;
25327;SDS011;13279;51.300;12.394;2024-02-21T09:17:44;11.80;;;5.83;;
25327;SDS011;13279;51.300;12.394;2024-02-21T09:20:12;11.80;;;5.07;;
25327;SDS011;13279;51.300;12.394;2024-02-21T09:22:41;9.80;;;4.50;;
25327;SDS011;13279;51.300;12.394;2024-02-21T09:25:08;15.60;;;5.33;;
25327;SDS011;13279;51.300;12.394;2024-02-21T09:27:37;15.17;;;5.60;;
25327;SDS011;13279;51.300;12.394;2024-02-21T09:30:05;16.93;;;5.37;;
25327;SDS011;13279;51.300;12.394;2024-02-21T09:32:33;14.53;;;4.60;;
25327;SDS011;13279;51.300;12.394;2024-02-21T09:35:03;17.03;;;5.10;;
25327;SDS011;13279;51.300;12.394;2024-02-21T09:37:31;13.43;;;5.93;;
25327;SDS011;13279;51.300;12.394;2024-02-21T09:39:58;13.43;;;6.33;;
25327;SDS011;13279;51.300;12.394;2024-02-21T09:42:27;9.27;;;5.30;;
25327;SDS011;13279;51.300;12.394;2024-02-21T09:45:04;13.17;;;5.87;;
25327;SDS011;13279;51.300;12.394;2024-02-21T09:47:39;14.77;;;6.00;;
25327;SDS011;13279;51.300;12.394;2024-02-21T09:50:17;14.10;;;5.73;;
25327;SDS011;13279;51.300;12.394;2024-02-21T09:52:47;16.90;;;6.67;;
25327;SDS011;13279;51.300;12.394;2024-02-21T09:55:16;16.07;;;5.83;;
25327;SDS011;13279;51.300;12.394;2024-02-21T09:57:45;11.20;;;5.27;;
25327;SDS011;13279;51.300;12.394;2024-02-21T10:00:12;13.67;;;4.73;;
25327;SDS011;13279;51.300;12.394;2024-02-21T10:02:47;16.53;;;5.53;;
25327;SDS011;13279;51.300;12.394;2024-02-21T10:05:15;21.67;;;6.67;;
25327;SDS011;13279;51.300;12.394;2024-02-21T10:07:44;11.90;;;5.57;;
25327;SDS011;13279;51.300;12.394;2024-02-21T10:10:11;23.00;;;5.37;;
25327;SDS011;13279;51.300;12.394;2024-02-21T10:12:47;18.20;;;5.53;;
25327;SDS011;13279;51.300;12.394;2024-02-21T10:15:19;15.57;;;5.53;;
25327;SDS011;13279;51.300;12.394;2024-02-21T10:17:47;10.77;;;5.60;;
25327;SDS011;13279;51.300;12.394;2024-02-21T10:20:16;12.30;;;5.53;;
25327;SDS011;13279;51.300;12.394;2024-02-21T10:22:44;13.80;;;4.60;;
25327;SDS011;13279;51.300;12.394;2024-02-21T10:25:11;12.73;;;5.03;;
25327;SDS011;13279;51.300;12.394;2024-02-21T10:27:39;19.40;;;5.30;;
25327;SDS011;13279;51.300;12.394;2024-02-21T10:30:07;17.43;;;4.63;;
25327;SDS011;13279;51.300;12.394;2024-02-21T10:32:48;10.27;;;4.70;;
25327;SDS011;13279;51.300;12.394;2024-02-21T10:35:26;16.67;;;4.03;;
25327;SDS011;13279;51.300;12.394;2024-02-21T10:37:57;9.47;;;4.50;;
25327;SDS011;13279;51.300;12.394;2024-02-21T10:40:26;11.63;;;3.97;;
25327;SDS011;13279;51.300;12.394;2024-02-21T10:42:57;10.27;;;5.37;;
25327;SDS011;13279;51.300;12.394;2024-02-21T10:45:28;12.30;;;4.73;;
25327;SDS011;13279;51.300;12.394;2024-02-21T10:48:00;10.87;;;4.20;;
25327;SDS011;13279;51.300;12.394;2024-02-21T10:50:47;15.90;;;4.33;;
25327;SDS011;13279;51.300;12.394;2024-02-21T10:53:24;17.70;;;3.60;;
25327;SDS011;13279;51.300;12.394;2024-02-21T10:56:11;10.93;;;4.63;;
25327;SDS011;13279;51.300;12.394;2024-02-21T10:58:48;6.57;;;3.23;;
25327;SDS011;13279;51.300;12.394;2024-02-21T11:01:16;15.17;;;5.20;;
25327;SDS011;13279;51.300;12.394;2024-02-21T11:03:45;10.63;;;4.10;;
25327;SDS011;13279;51.300;12.394;2024-02-21T11:06:16;12.23;;;4.10;;
25327;SDS011;13279;51.300;12.394;2024-02-21T11:08:46;9.33;;;4.03;;
25327;SDS011;13279;51.300;12.394;2024-02-21T11:11:14;6.90;;;3.50;;
25327;SDS011;13279;51.300;12.394;2024-02-21T11:13:44;8.57;;;3.80;;
25327;SDS011;13279;51.300;12.394;2024-02-21T11:16:21;13.30;;;4.40;;
25327;SDS011;13279;51.300;12.394;2024-02-21T11:18:49;9.93;;;4.27;;
25327;SDS011;13279;51.300;12.394;2024-02-21T11:21:18;8.63;;;3.20;;
25327;SDS011;13279;51.300;12.394;2024-02-21T11:23:54;10.13;;;3.70;;
25327;SDS011;13279;51.300;12.394;2024-02-21T11:26:22;9.23;;;3.20;;
25327;SDS011;13279;51.300;12.394;2024-02-21T11:28:58;10.97;;;3.67;;
25327;SDS011;13279;51.300;12.394;2024-02-21T11:31:26;11.13;;;2.73;;
25327;SDS011;13279;51.300;12.394;2024-02-21T11:33:53;6.80;;;3.20;;
25327;SDS011;13279;51.300;12.394;2024-02-21T11:36:26;7.23;;;2.93;;
25327;SDS011;13279;51.300;12.394;2024-02-21T11:38:54;4.33;;;3.10;;
25327;SDS011;13279;51.300;12.394;2024-02-21T11:41:30;6.07;;;2.87;;
25327;SDS011;13279;51.300;12.394;2024-02-21T11:43:57;7.60;;;3.63;;
25327;SDS011;13279;51.300;12.394;2024-02-21T11:46:24;11.77;;;3.37;;
25327;SDS011;13279;51.300;12.394;2024-02-21T11:48:51;6.60;;;3.37;;
25327;SDS011;13279;51.300;12.394;2024-02-21T11:51:24;6.40;;;3.67;;
25327;SDS011;13279;51.300;12.394;2024-02-21T11:53:52;7.53;;;3.03;;
25327;SDS011;13279;51.300;12.394;2024-02-21T11:56:20;8.63;;;3.73;;
25327;SDS011;13279;51.300;12.394;2024-02-21T11:58:48;5.67;;;3.33;;
25327;SDS011;13279;51.300;12.394;2024-02-21T12:01:15;4.20;;;2.67;;
25327;SDS011;13279;51.300;12.394;2024-02-21T12:03:42;5.27;;;2.97;;
25327;SDS011;13279;51.300;12.394;2024-02-21T12:06:15;9.63;;;2.73;;
25327;SDS011;13279;51.300;12.394;2024-02-21T12:08:48;11.93;;;3.00;;
25327;SDS011;13279;51.300;12.394;2024-02-21T12:11:15;11.53;;;3.30;;
25327;SDS011;13279;51.300;12.394;2024-02-21T12:13:44;9.13;;;3.10;;
25327;SDS011;13279;51.300;12.394;2024-02-21T12:16:14;4.73;;;2.60;;
25327;SDS011;13279;51.300;12.394;2024-02-21T12:18:43;7.37;;;2.50;;
25327;SDS011;13279;51.300;12.394;2024-02-21T12:21:11;3.20;;;2.60;;
25327;SDS011;13279;51.300;12.394;2024-02-21T12:23:38;3.77;;;2.23;;
25327;SDS011;13279;51.300;12.394;2024-02-21T12:26:07;5.73;;;2.67;;
25327;SDS011;13279;51.300;12.394;2024-02-21T12:28:35;6.30;;;2.67;;
25327;SDS011;13279;51.300;12.394;2024-02-21T12:31:02;2.90;;;2.23;;
25327;SDS011;13279;51.300;12.394;2024-02-21T12:33:30;13.20;;;2.40;;
25327;SDS011;13279;51.300;12.394;2024-02-21T12:35:58;9.43;;;2.93;;
25327;SDS011;13279;51.300;12.394;2024-02-21T12:38:26;3.50;;;2.03;;
25327;SDS011;13279;51.300;12.394;2024-02-21T12:40:53;3.23;;;2.10;;
25327;SDS011;13279;51.300;12.394;2024-02-21T12:43:24;4.80;;;2.10;;
25327;SDS011;13279;51.300;12.394;2024-02-21T12:45:51;4.83;;;2.57;;
25327;SDS011;13279;51.300;12.394;2024-02-21T12:48:19;5.63;;;2.63;;
25327;SDS011;13279;51.300;12.394;2024-02-21T12:50:48;5.97;;;2.37;;
25327;SDS011;13279;51.300;12.394;2024-02-21T12:53:17;7.80;;;2.70;;
25327;SDS011;13279;51.300;12.394;2024-02-21T12:55:46;3.93;;;2.20;;
25327;SDS011;13279;51.300;12.394;2024-02-21T12:58:15;7.40;;;2.07;;
25327;SDS011;13279;51.300;12.394;2024-02-21T13:00:43;5.27;;;2.90;;
25327;SDS011;13279;51.300;12.394;2024-02-21T13:03:11;3.13;;;2.03;;
25327;SDS011;13279;51.300;12.394;2024-02-21T13:05:39;2.60;;;2.00;;
25327;SDS011;13279;51.300;12.394;2024-02-21T13:08:06;4.50;;;2.07;;
25327;SDS011;13279;51.300;12.394;2024-02-21T13:10:35;7.03;;;2.27;;
25327;SDS011;13279;51.300;12.394;2024-02-21T13:13:02;4.47;;;2.10;;
25327;SDS011;13279;51.300;12.394;2024-02-21T13:15:30;7.17;;;2.17;;
25327;SDS011;13279;51.300;12.394;2024-02-21T13:17:59;10.43;;;2.60;;
25327;SDS011;13279;51.300;12.394;2024-02-21T13:20:26;4.80;;;2.20;;
25327;SDS011;13279;51.300;12.394;2024-02-21T13:22:54;5.10;;;1.80;;
25327;SDS011;13279;51.300;12.394;2024-02-21T13:25:21;3.07;;;1.60;;
25327;SDS011;13279;51.300;12.394;2024-02-21T13:27:49;3.73;;;1.90;;
25327;SDS011;13279;51.300;12.394;2024-02-21T13:30:16;7.47;;;2.13;;
25327;SDS011;13279;51.300;12.394;2024-02-21T13:32:44;3.23;;;1.70;;
25327;SDS011;13279;51.300;12.394;2024-02-21T13:35:14;4.70;;;1.87;;
25327;SDS011;13279;51.300;12.394;2024-02-21T13:37:41;5.10;;;2.10;;
25327;SDS011;13279;51.300;12.394;2024-02-21T13:40:09;7.20;;;1.77;;
25327;SDS011;13279;51.300;12.394;2024-02-21T13:42:39;3.63;;;1.90;;
25327;SDS011;13279;51.300;12.394;2024-02-21T13:45:08;9.30;;;1.73;;
25327;SDS011;13279;51.300;12.394;2024-02-21T13:47:36;4.70;;;2.17;;
25327;SDS011;13279;51.300;12.394;2024-02-21T13:50:04;4.27;;;1.83;;
25327;SDS011;13279;51.300;12.394;2024-02-21T13:52:36;4.10;;;1.90;;
25327;SDS011;13279;51.300;12.394;2024-02-21T13:55:03;5.97;;;1.80;;
25327;SDS011;13279;51.300;12.394;2024-02-21T13:57:34;3.97;;;1.93;;
25327;SDS011;13279;51.300;12.394;2024-02-21T14:00:01;3.93;;;1.90;;
25327;SDS011;13279;51.300;12.394;2024-02-21T14:02:37;4.57;;;1.90;;
25327;SDS011;13279;51.300;12.394;2024-02-21T14:05:05;6.23;;;1.37;;
25327;SDS011;13279;51.300;12.394;2024-02-21T14:07:33;5.67;;;1.90;;
25327;SDS011;13279;51.300;12.394;2024-02-21T14:10:02;4.90;;;1.97;;
25327;SDS011;13279;51.300;12.394;2024-02-21T14:12:30;4.23;;;2.30;;
25327;SDS011;13279;51.300;12.394;2024-02-21T14:14:58;8.50;;;2.30;;
25327;SDS011;13279;51.300;12.394;2024-02-21T14:17:26;4.53;;;1.80;;
25327;SDS011;13279;51.300;12.394;2024-02-21T14:19:53;1.73;;;1.53;;
25327;SDS011;13279;51.300;12.394;2024-02-21T14:22:20;3.90;;;1.70;;
25327;SDS011;13279;51.300;12.394;2024-02-21T14:24:48;5.17;;;1.50;;
25327;SDS011;13279;51.300;12.394;2024-02-21T14:27:17;3.50;;;1.67;;
25327;SDS011;13279;51.300;12.394;2024-02-21T14:29:44;3.37;;;1.57;;
25327;SDS011;13279;51.300;12.394;2024-02-21T14:32:12;4.03;;;1.73;;